Terminal Aerodrome Forecast
Issued by NWS

Home | Current Version | Previous Version | Text Only | Print | Product List | Glossary On
Versions: 1 2 3 4 5 6 7 8 9 10 11 12 13 14 15 16 17 18 19 20 21 22 23
000
FTUS46 KPDT 222300
TAFYKM
TAF
KYKM 222322Z 2300/2324 30006KT P6SM SCT120
     FM230300 VRB04KT P6SM BKN120
     FM231200 28005KT 6SM BR BKN060
     FM231800 VRB03KT P6SM SCT020 BKN080=

USA.gov is the U.S. government's official web portal to all federal, state and local government web resources and services.